sensor_id;sensor_type;location;lat;lon;timestamp;pressure;altitude;pressure_sealevel;temperature;humidity
69751;BME280;57335;52.288;6.056;2022-11-15T00:00:52;100895.44;;;6.59;100.00
69751;BME280;57335;52.288;6.056;2022-11-15T00:03:20;100901.28;;;6.62;100.00
69751;BME280;57335;52.288;6.056;2022-11-15T00:05:48;100875.13;;;6.55;100.00
69751;BME280;57335;52.288;6.056;2022-11-15T00:08:14;100871.09;;;6.52;100.00
69751;BME280;57335;52.288;6.056;2022-11-15T00:10:41;100886.00;;;6.58;100.00
69751;BME280;57335;52.288;6.056;2022-11-15T00:13:10;100881.78;;;6.57;100.00
69751;BME280;57335;52.288;6.056;2022-11-15T00:15:39;100889.88;;;6.63;100.00
69751;BME280;57335;52.288;6.056;2022-11-15T00:18:10;100887.97;;;6.56;100.00
69751;BME280;57335;52.288;6.056;2022-11-15T00:20:38;100871.09;;;6.52;100.00
69751;BME280;57335;52.288;6.056;2022-11-15T00:23:04;100878.91;;;6.52;100.00
69751;BME280;57335;52.288;6.056;2022-11-15T00:25:31;100877.38;;;6.58;100.00
69751;BME280;57335;52.288;6.056;2022-11-15T00:27:59;100871.09;;;6.52;100.00
69751;BME280;57335;52.288;6.056;2022-11-15T00:30:27;100885.13;;;6.66;100.00
69751;BME280;57335;52.288;6.056;2022-11-15T00:32:53;100862.41;;;6.60;100.00
69751;BME280;57335;52.288;6.056;2022-11-15T00:35:20;100852.78;;;6.61;100.00
69751;BME280;57335;52.288;6.056;2022-11-15T00:37:46;100861.69;;;6.66;100.00
69751;BME280;57335;52.288;6.056;2022-11-15T00:40:14;100860.88;;;6.66;100.00
69751;BME280;57335;52.288;6.056;2022-11-15T00:42:41;100855.03;;;6.64;100.00
69751;BME280;57335;52.288;6.056;2022-11-15T00:45:08;100860.78;;;6.74;100.00
69751;BME280;57335;52.288;6.056;2022-11-15T00:47:35;100842.72;;;6.72;100.00
69751;BME280;57335;52.288;6.056;2022-11-15T00:50:01;100837.34;;;6.74;100.00
69751;BME280;57335;52.288;6.056;2022-11-15T00:52:28;100862.66;;;6.80;100.00
69751;BME280;57335;52.288;6.056;2022-11-15T00:54:54;100848.00;;;6.79;100.00
69751;BME280;57335;52.288;6.056;2022-11-15T00:57:21;100863.19;;;6.90;100.00
69751;BME280;57335;52.288;6.056;2022-11-15T00:59:47;100841.34;;;6.91;100.00
69751;BME280;57335;52.288;6.056;2022-11-15T01:02:13;100854.03;;;6.94;100.00
69751;BME280;57335;52.288;6.056;2022-11-15T01:04:40;100829.97;;;6.92;100.00
69751;BME280;57335;52.288;6.056;2022-11-15T01:07:06;100848.53;;;7.04;100.00
69751;BME280;57335;52.288;6.056;2022-11-15T01:09:33;100852.00;;;7.11;100.00
69751;BME280;57335;52.288;6.056;2022-11-15T01:11:59;100853.47;;;7.14;100.00
69751;BME280;57335;52.288;6.056;2022-11-15T01:14:25;100845.44;;;7.15;100.00
69751;BME280;57335;52.288;6.056;2022-11-15T01:16:52;100841.78;;;7.10;100.00
69751;BME280;57335;52.288;6.056;2022-11-15T01:19:18;100845.44;;;7.15;100.00
69751;BME280;57335;52.288;6.056;2022-11-15T01:21:44;100852.00;;;7.26;100.00
69751;BME280;57335;52.288;6.056;2022-11-15T01:24:12;100846.16;;;7.24;100.00
69751;BME280;57335;52.288;6.056;2022-11-15T01:26:38;100843.44;;;7.32;100.00
69751;BME280;57335;52.288;6.056;2022-11-15T01:29:05;100849.72;;;7.38;100.00
69751;BME280;57335;52.288;6.056;2022-11-15T01:31:31;100832.63;;;7.35;100.00
69751;BME280;57335;52.288;6.056;2022-11-15T01:33:58;100831.28;;;7.39;100.00
69751;BME280;57335;52.288;6.056;2022-11-15T01:36:24;100834.13;;;7.45;100.00
69751;BME280;57335;52.288;6.056;2022-11-15T01:38:55;100825.34;;;7.46;100.00
69751;BME280;57335;52.288;6.056;2022-11-15T01:41:28;100816.16;;;7.50;100.00
69751;BME280;57335;52.288;6.056;2022-11-15T01:43:57;100826.47;;;7.58;100.00
69751;BME280;57335;52.288;6.056;2022-11-15T01:46:34;100808.38;;;7.56;100.00
69751;BME280;57335;52.288;6.056;2022-11-15T01:49:05;100810.56;;;7.53;100.00
69751;BME280;57335;52.288;6.056;2022-11-15T01:51:37;100801.88;;;7.46;100.00
69751;BME280;57335;52.288;6.056;2022-11-15T01:54:09;100806.34;;;7.52;100.00
69751;BME280;57335;52.288;6.056;2022-11-15T01:56:47;100804.72;;;7.51;100.00
69751;BME280;57335;52.288;6.056;2022-11-15T01:59:15;100808.94;;;7.52;100.00
69751;BME280;57335;52.288;6.056;2022-11-15T02:01:42;100812.19;;;7.54;100.00
69751;BME280;57335;52.288;6.056;2022-11-15T02:04:13;100811.91;;;7.49;100.00
69751;BME280;57335;52.288;6.056;2022-11-15T02:06:41;100819.38;;;7.52;100.00
69751;BME280;57335;52.288;6.056;2022-11-15T02:09:09;100800.88;;;7.47;100.00
69751;BME280;57335;52.288;6.056;2022-11-15T02:11:36;100813.78;;;7.55;100.00
69751;BME280;57335;52.288;6.056;2022-11-15T02:14:03;100807.38;;;7.57;100.00
69751;BME280;57335;52.288;6.056;2022-11-15T02:16:35;100816.44;;;7.62;100.00
69751;BME280;57335;52.288;6.056;2022-11-15T02:22:29;100801.41;;;7.64;100.00
69751;BME280;57335;52.288;6.056;2022-11-15T02:28:41;100801.47;;;7.70;100.00
69751;BME280;57335;52.288;6.056;2022-11-15T02:31:20;100794.41;;;7.64;100.00
69751;BME280;57335;52.288;6.056;2022-11-15T02:33:54;100803.91;;;7.72;100.00
69751;BME280;57335;52.288;6.056;2022-11-15T02:39:19;100790.88;;;7.72;100.00
69751;BME280;57335;52.288;6.056;2022-11-15T02:42:04;100775.41;;;7.70;100.00
69751;BME280;57335;52.288;6.056;2022-11-15T02:44:37;100768.19;;;7.72;100.00
69751;BME280;57335;52.288;6.056;2022-11-15T02:47:07;100780.69;;;7.84;100.00
69751;BME280;57335;52.288;6.056;2022-11-15T02:49:43;100765.44;;;7.81;100.00
69751;BME280;57335;52.288;6.056;2022-11-15T02:52:16;100759.84;;;7.84;100.00
69751;BME280;57335;52.288;6.056;2022-11-15T02:54:43;100768.09;;;7.87;100.00
69751;BME280;57335;52.288;6.056;2022-11-15T02:57:28;100762.25;;;7.85;100.00
69751;BME280;57335;52.288;6.056;2022-11-15T03:02:36;100765.56;;;7.94;100.00
69751;BME280;57335;52.288;6.056;2022-11-15T03:05:15;100750.13;;;7.99;100.00
69751;BME280;57335;52.288;6.056;2022-11-15T03:08:00;100752.09;;;7.97;100.00
69751;BME280;57335;52.288;6.056;2022-11-15T03:16:19;100730.25;;;7.98;100.00
69751;BME280;57335;52.288;6.056;2022-11-15T03:18:59;100736.28;;;8.05;100.00
69751;BME280;57335;52.288;6.056;2022-11-15T03:21:28;100731.94;;;8.12;100.00
69751;BME280;57335;52.288;6.056;2022-11-15T03:23:58;100731.31;;;8.10;100.00
69751;BME280;57335;52.288;6.056;2022-11-15T03:26:28;100727.50;;;8.13;100.00
69751;BME280;57335;52.288;6.056;2022-11-15T03:29:02;100731.59;;;8.22;100.00
69751;BME280;57335;52.288;6.056;2022-11-15T03:31:32;100720.91;;;8.17;100.00
69751;BME280;57335;52.288;6.056;2022-11-15T03:34:03;100723.78;;;8.29;100.00
69751;BME280;57335;52.288;6.056;2022-11-15T03:36:33;100725.19;;;8.31;100.00
69751;BME280;57335;52.288;6.056;2022-11-15T03:39:03;100716.75;;;8.29;100.00
69751;BME280;57335;52.288;6.056;2022-11-15T03:41:42;100713.56;;;8.34;100.00
69751;BME280;57335;52.288;6.056;2022-11-15T03:46:57;100712.19;;;8.38;100.00
69751;BME280;57335;52.288;6.056;2022-11-15T03:49:31;100716.22;;;8.41;100.00
69751;BME280;57335;52.288;6.056;2022-11-15T03:51:59;100728.94;;;8.50;100.00
69751;BME280;57335;52.288;6.056;2022-11-15T03:54:26;100733.34;;;8.50;100.00
69751;BME280;57335;52.288;6.056;2022-11-15T03:56:52;100728.56;;;8.60;100.00
69751;BME280;57335;52.288;6.056;2022-11-15T03:59:19;100711.28;;;8.59;100.00
69751;BME280;57335;52.288;6.056;2022-11-15T04:01:45;100717.72;;;8.56;100.00
69751;BME280;57335;52.288;6.056;2022-11-15T04:04:12;100720.16;;;8.65;100.00
69751;BME280;57335;52.288;6.056;2022-11-15T04:06:38;100730.41;;;8.73;100.00
69751;BME280;57335;52.288;6.056;2022-11-15T04:09:04;100729.03;;;8.77;100.00
69751;BME280;57335;52.288;6.056;2022-11-15T04:11:31;100718.94;;;8.74;100.00
69751;BME280;57335;52.288;6.056;2022-11-15T04:13:57;100732.06;;;8.87;100.00
69751;BME280;57335;52.288;6.056;2022-11-15T04:16:23;100737.28;;;8.87;100.00
69751;BME280;57335;52.288;6.056;2022-11-15T04:18:50;100727.84;;;8.86;100.00
69751;BME280;57335;52.288;6.056;2022-11-15T04:21:16;100737.28;;;8.87;100.00
69751;BME280;57335;52.288;6.056;2022-11-15T04:23:43;100732.06;;;8.81;100.00
69751;BME280;57335;52.288;6.056;2022-11-15T04:26:14;100736.06;;;8.83;100.00
69751;BME280;57335;52.288;6.056;2022-11-15T04:28:42;100724.63;;;8.84;100.00
69751;BME280;57335;52.288;6.056;2022-11-15T04:31:08;100732.47;;;8.91;100.00
69751;BME280;57335;52.288;6.056;2022-11-15T04:33:34;100729.06;;;8.90;100.00
69751;BME280;57335;52.288;6.056;2022-11-15T04:36:01;100731.69;;;8.97;100.00
69751;BME280;57335;52.288;6.056;2022-11-15T04:38:27;100724.22;;;8.87;100.00
69751;BME280;57335;52.288;6.056;2022-11-15T04:40:54;100721.63;;;8.94;100.00
69751;BME280;57335;52.288;6.056;2022-11-15T04:43:20;100714.19;;;8.97;100.00
69751;BME280;57335;52.288;6.056;2022-11-15T04:45:46;100705.38;;;8.98;100.00
69751;BME280;57335;52.288;6.056;2022-11-15T04:48:12;100724.28;;;9.07;100.00
69751;BME280;57335;52.288;6.056;2022-11-15T04:50:39;100709.19;;;9.03;100.00
69751;BME280;57335;52.288;6.056;2022-11-15T04:53:05;100721.66;;;9.07;100.00
69751;BME280;57335;52.288;6.056;2022-11-15T04:55:32;100720.44;;;9.10;100.00
69751;BME280;57335;52.288;6.056;2022-11-15T04:57:59;100719.44;;;9.17;100.00
69751;BME280;57335;52.288;6.056;2022-11-15T05:00:26;100725.88;;;9.22;100.00
69751;BME280;57335;52.288;6.056;2022-11-15T05:02:53;100721.69;;;9.27;100.00
69751;BME280;57335;52.288;6.056;2022-11-15T05:05:20;100717.84;;;9.23;100.00
69751;BME280;57335;52.288;6.056;2022-11-15T05:07:46;100706.78;;;9.21;100.00
69751;BME280;57335;52.288;6.056;2022-11-15T05:10:12;100705.19;;;9.20;100.00
69751;BME280;57335;52.288;6.056;2022-11-15T05:12:39;100711.22;;;9.27;100.00
69751;BME280;57335;52.288;6.056;2022-11-15T05:15:06;100721.28;;;9.37;100.00
69751;BME280;57335;52.288;6.056;2022-11-15T05:17:32;100721.47;;;9.35;100.00
69751;BME280;57335;52.288;6.056;2022-11-15T05:19:59;100711.03;;;9.35;100.00
69751;BME280;57335;52.288;6.056;2022-11-15T05:22:25;100709.44;;;9.34;100.00
69751;BME280;57335;52.288;6.056;2022-11-15T05:24:52;100723.09;;;9.43;100.00
69751;BME280;57335;52.288;6.056;2022-11-15T05:27:18;100703.78;;;9.37;100.00
69751;BME280;57335;52.288;6.056;2022-11-15T05:29:44;100714.25;;;9.37;100.00
69751;BME280;57335;52.288;6.056;2022-11-15T05:32:11;100721.09;;;9.45;100.00
69751;BME280;57335;52.288;6.056;2022-11-15T05:34:38;100715.84;;;9.45;100.00
69751;BME280;57335;52.288;6.056;2022-11-15T05:37:04;100704.97;;;9.42;100.00
69751;BME280;57335;52.288;6.056;2022-11-15T05:39:31;100715.25;;;9.50;100.00
69751;BME280;57335;52.288;6.056;2022-11-15T05:42:04;100708.81;;;9.46;100.00
69751;BME280;57335;52.288;6.056;2022-11-15T05:44:33;100714.25;;;9.51;100.00
69751;BME280;57335;52.288;6.056;2022-11-15T05:47:00;100708.59;;;9.47;100.00
69751;BME280;57335;52.288;6.056;2022-11-15T05:49:31;100719.47;;;9.57;100.00
69751;BME280;57335;52.288;6.056;2022-11-15T05:52:00;100725.50;;;9.58;100.00
69751;BME280;57335;52.288;6.056;2022-11-15T05:54:26;100718.69;;;9.57;100.00
69751;BME280;57335;52.288;6.056;2022-11-15T05:56:53;100711.44;;;9.59;100.00
69751;BME280;57335;52.288;6.056;2022-11-15T05:59:19;100717.06;;;9.56;100.00
69751;BME280;57335;52.288;6.056;2022-11-15T06:01:46;100715.63;;;9.60;100.00
69751;BME280;57335;52.288;6.056;2022-11-15T06:04:12;100719.69;;;9.63;100.00
69751;BME280;57335;52.288;6.056;2022-11-15T06:06:39;100726.91;;;9.67;100.00
69751;BME280;57335;52.288;6.056;2022-11-15T06:09:05;100724.50;;;9.72;100.00
69751;BME280;57335;52.288;6.056;2022-11-15T06:11:32;100735.16;;;9.77;100.00
69751;BME280;57335;52.288;6.056;2022-11-15T06:13:58;100733.56;;;9.76;100.00
69751;BME280;57335;52.288;6.056;2022-11-15T06:16:24;100734.97;;;9.79;100.00
69751;BME280;57335;52.288;6.056;2022-11-15T06:18:51;100734.75;;;9.81;100.00
69751;BME280;57335;52.288;6.056;2022-11-15T06:21:17;100735.94;;;9.78;100.00
69751;BME280;57335;52.288;6.056;2022-11-15T06:23:43;100742.38;;;9.82;100.00
69751;BME280;57335;52.288;6.056;2022-11-15T06:26:10;100743.81;;;9.85;100.00
69751;BME280;57335;52.288;6.056;2022-11-15T06:28:36;100740.97;;;9.93;100.00
69751;BME280;57335;52.288;6.056;2022-11-15T06:31:04;100746.81;;;10.02;100.00
69751;BME280;57335;52.288;6.056;2022-11-15T06:33:31;100738.34;;;9.99;100.00
69751;BME280;57335;52.288;6.056;2022-11-15T06:36:03;100760.50;;;10.10;100.00
69751;BME280;57335;52.288;6.056;2022-11-15T06:38:29;100749.00;;;10.11;100.00
69751;BME280;57335;52.288;6.056;2022-11-15T06:41:02;100757.84;;;10.17;100.00
69751;BME280;57335;52.288;6.056;2022-11-15T06:43:28;100768.13;;;10.18;100.00
69751;BME280;57335;52.288;6.056;2022-11-15T06:45:59;100759.69;;;10.16;100.00
69751;BME280;57335;52.288;6.056;2022-11-15T06:48:26;100760.44;;;10.24;100.00
69751;BME280;57335;52.288;6.056;2022-11-15T06:50:58;100758.44;;;10.26;100.00
69751;BME280;57335;52.288;6.056;2022-11-15T06:53:25;100764.91;;;10.30;100.00
69751;BME280;57335;52.288;6.056;2022-11-15T06:55:52;100748.34;;;10.29;100.00
69751;BME280;57335;52.288;6.056;2022-11-15T06:58:21;100742.72;;;10.26;100.00
69751;BME280;57335;52.288;6.056;2022-11-15T07:00:47;100746.75;;;10.22;100.00
69751;BME280;57335;52.288;6.056;2022-11-15T07:03:14;100768.50;;;10.29;100.00
69751;BME280;57335;52.288;6.056;2022-11-15T07:05:40;100768.13;;;10.32;100.00
69751;BME280;57335;52.288;6.056;2022-11-15T07:08:06;100767.69;;;10.28;100.00
69751;BME280;57335;52.288;6.056;2022-11-15T07:10:33;100769.13;;;10.31;100.00
69751;BME280;57335;52.288;6.056;2022-11-15T07:12:59;100768.50;;;10.22;100.00
69751;BME280;57335;52.288;6.056;2022-11-15T07:15:25;100772.53;;;10.18;100.00
69751;BME280;57335;52.288;6.056;2022-11-15T07:17:52;100779.38;;;10.26;100.00
69751;BME280;57335;52.288;6.056;2022-11-15T07:20:18;100785.84;;;10.23;100.00
69751;BME280;57335;52.288;6.056;2022-11-15T07:22:45;100774.94;;;10.26;100.00
69751;BME280;57335;52.288;6.056;2022-11-15T07:25:11;100791.09;;;10.36;100.00
69751;BME280;57335;52.288;6.056;2022-11-15T07:27:38;100794.31;;;10.38;100.00
69751;BME280;57335;52.288;6.056;2022-11-15T07:30:05;100772.97;;;10.35;100.00
69751;BME280;57335;52.288;6.056;2022-11-15T07:32:31;100780.78;;;10.42;100.00
69751;BME280;57335;52.288;6.056;2022-11-15T07:34:58;100791.66;;;10.45;100.00
69751;BME280;57335;52.288;6.056;2022-11-15T07:37:24;100782.00;;;10.39;100.00
69751;BME280;57335;52.288;6.056;2022-11-15T07:39:50;100771.34;;;10.41;100.00
69751;BME280;57335;52.288;6.056;2022-11-15T07:42:17;100786.44;;;10.45;100.00
69751;BME280;57335;52.288;6.056;2022-11-15T07:44:43;100773.72;;;10.42;100.00
69751;BME280;57335;52.288;6.056;2022-11-15T07:47:09;100777.38;;;10.41;100.00
69751;BME280;57335;52.288;6.056;2022-11-15T07:49:36;100764.88;;;10.43;100.00
69751;BME280;57335;52.288;6.056;2022-11-15T07:52:02;100778.13;;;10.48;100.00
69751;BME280;57335;52.288;6.056;2022-11-15T07:54:29;100769.69;;;10.46;100.00
69751;BME280;57335;52.288;6.056;2022-11-15T07:56:55;100768.88;;;10.46;100.00
69751;BME280;57335;52.288;6.056;2022-11-15T07:59:21;100778.13;;;10.48;100.00
69751;BME280;57335;52.288;6.056;2022-11-15T08:01:48;100791.03;;;10.50;100.00
69751;BME280;57335;52.288;6.056;2022-11-15T08:04:17;100789.25;;;10.50;100.00
69751;BME280;57335;52.288;6.056;2022-11-15T08:06:43;100772.72;;;10.43;100.00
69751;BME280;57335;52.288;6.056;2022-11-15T08:09:11;100789.84;;;10.52;100.00
69751;BME280;57335;52.288;6.056;2022-11-15T08:11:37;100774.75;;;10.41;100.00
69751;BME280;57335;52.288;6.056;2022-11-15T08:14:03;100789.66;;;10.47;100.00
69751;BME280;57335;52.288;6.056;2022-11-15T08:16:30;100785.81;;;10.43;100.00
69751;BME280;57335;52.288;6.056;2022-11-15T08:18:56;100780.38;;;10.45;100.00
69751;BME280;57335;52.288;6.056;2022-11-15T08:21:23;100772.53;;;10.45;100.00
69751;BME280;57335;52.288;6.056;2022-11-15T08:23:49;100776.50;;;10.54;100.00
69751;BME280;57335;52.288;6.056;2022-11-15T08:26:16;100779.72;;;10.56;100.00
69751;BME280;57335;52.288;6.056;2022-11-15T08:28:43;100769.66;;;10.60;100.00
69751;BME280;57335;52.288;6.056;2022-11-15T08:31:17;100792.19;;;10.67;100.00
69751;BME280;57335;52.288;6.056;2022-11-15T08:33:44;100780.91;;;10.67;100.00
69751;BME280;57335;52.288;6.056;2022-11-15T08:36:15;100781.72;;;10.67;100.00
69751;BME280;57335;52.288;6.056;2022-11-15T08:38:42;100766.19;;;10.66;100.00
69751;BME280;57335;52.288;6.056;2022-11-15T08:41:13;100772.03;;;10.68;100.00
69751;BME280;57335;52.288;6.056;2022-11-15T08:43:42;100766.00;;;10.67;100.00
69751;BME280;57335;52.288;6.056;2022-11-15T08:46:13;100765.34;;;10.72;100.00
69751;BME280;57335;52.288;6.056;2022-11-15T08:48:39;100766.34;;;10.77;100.00
69751;BME280;57335;52.288;6.056;2022-11-15T08:51:06;100774.41;;;10.83;100.00
69751;BME280;57335;52.288;6.056;2022-11-15T08:53:33;100768.13;;;10.84;100.00
69751;BME280;57335;52.288;6.056;2022-11-15T08:55:59;100748.63;;;10.73;100.00
69751;BME280;57335;52.288;6.056;2022-11-15T08:58:26;100752.19;;;10.85;100.00
69751;BME280;57335;52.288;6.056;2022-11-15T09:00:52;100758.19;;;10.92;100.00
69751;BME280;57335;52.288;6.056;2022-11-15T09:03:18;100764.22;;;11.00;100.00
69751;BME280;57335;52.288;6.056;2022-11-15T09:05:45;100752.75;;;10.94;100.00
69751;BME280;57335;52.288;6.056;2022-11-15T09:08:11;100740.06;;;10.91;100.00
69751;BME280;57335;52.288;6.056;2022-11-15T09:10:58;100751.69;;;11.02;100.00
69751;BME280;57335;52.288;6.056;2022-11-15T09:13:24;100757.53;;;11.04;100.00
69751;BME280;57335;52.288;6.056;2022-11-15T09:15:50;100754.31;;;11.02;100.00
69751;BME280;57335;52.288;6.056;2022-11-15T09:18:17;100743.41;;;11.05;100.00
69751;BME280;57335;52.288;6.056;2022-11-15T09:20:43;100726.50;;;11.01;100.00
69751;BME280;57335;52.288;6.056;2022-11-15T09:23:09;100751.28;;;11.05;100.00
69751;BME280;57335;52.288;6.056;2022-11-15T09:25:36;100743.63;;;11.03;100.00
69751;BME280;57335;52.288;6.056;2022-11-15T09:28:06;100755.91;;;11.09;100.00
69751;BME280;57335;52.288;6.056;2022-11-15T09:30:32;100752.84;;;11.12;100.00
69751;BME280;57335;52.288;6.056;2022-11-15T09:33:06;100744.84;;;11.01;100.00
69751;BME280;57335;52.288;6.056;2022-11-15T09:35:32;100756.28;;;11.13;100.00
69751;BME280;57335;52.288;6.056;2022-11-15T09:37:59;100750.59;;;11.16;100.00
69751;BME280;57335;52.288;6.056;2022-11-15T09:40:25;100739.69;;;11.19;100.00
69751;BME280;57335;52.288;6.056;2022-11-15T09:43:02;100727.75;;;11.23;100.00
69751;BME280;57335;52.288;6.056;2022-11-15T09:45:34;100741.47;;;11.25;100.00
69751;BME280;57335;52.288;6.056;2022-11-15T09:48:27;100748.44;;;11.38;100.00
69751;BME280;57335;52.288;6.056;2022-11-15T09:51:03;100745.50;;;11.53;100.00
69751;BME280;57335;52.288;6.056;2022-11-15T09:53:42;100742.34;;;11.69;100.00
69751;BME280;57335;52.288;6.056;2022-11-15T09:56:39;100721.47;;;11.74;100.00
69751;BME280;57335;52.288;6.056;2022-11-15T09:59:36;100736.84;;;11.96;100.00
69751;BME280;57335;52.288;6.056;2022-11-15T10:02:43;100736.44;;;12.17;100.00
69751;BME280;57335;52.288;6.056;2022-11-15T10:05:22;100721.25;;;12.20;100.00
69751;BME280;57335;52.288;6.056;2022-11-15T10:10:46;100721.75;;;12.10;100.00
69751;BME280;57335;52.288;6.056;2022-11-15T10:13:25;100713.31;;;12.08;100.00
69751;BME280;57335;52.288;6.056;2022-11-15T10:15:53;100711.25;;;12.10;100.00
69751;BME280;57335;52.288;6.056;2022-11-15T10:18:34;100715.53;;;12.23;100.00
69751;BME280;57335;52.288;6.056;2022-11-15T10:21:17;100709.28;;;12.24;100.00
69751;BME280;57335;52.288;6.056;2022-11-15T10:23:44;100695.72;;;12.27;100.00
69751;BME280;57335;52.288;6.056;2022-11-15T10:26:14;100713.06;;;12.46;100.00
69751;BME280;57335;52.288;6.056;2022-11-15T10:28:41;100708.38;;;12.48;99.76
69751;BME280;57335;52.288;6.056;2022-11-15T10:31:25;100710.25;;;12.60;100.00
69751;BME280;57335;52.288;6.056;2022-11-15T10:33:59;100704.78;;;12.61;98.67
69751;BME280;57335;52.288;6.056;2022-11-15T10:36:35;100710.69;;;12.56;99.21
69751;BME280;57335;52.288;6.056;2022-11-15T10:39:02;100696.63;;;12.51;98.20
69751;BME280;57335;52.288;6.056;2022-11-15T10:41:30;100705.44;;;12.56;97.98
69751;BME280;57335;52.288;6.056;2022-11-15T10:46:35;100704.16;;;12.47;98.65
69751;BME280;57335;52.288;6.056;2022-11-15T10:49:27;100699.22;;;12.39;98.03
69751;BME280;57335;52.288;6.056;2022-11-15T10:52:16;100694.97;;;12.38;99.58
69751;BME280;57335;52.288;6.056;2022-11-15T11:00:06;100683.06;;;12.35;98.78
69751;BME280;57335;52.288;6.056;2022-11-15T11:02:39;100671.91;;;12.22;98.19
69751;BME280;57335;52.288;6.056;2022-11-15T11:08:18;100664.25;;;12.20;99.87
69751;BME280;57335;52.288;6.056;2022-11-15T11:11:05;100674.38;;;12.16;98.64
69751;BME280;57335;52.288;6.056;2022-11-15T11:13:38;100659.50;;;12.10;99.70
69751;BME280;57335;52.288;6.056;2022-11-15T11:21:15;100639.66;;;12.14;100.00
69751;BME280;57335;52.288;6.056;2022-11-15T11:23:47;100645.34;;;12.30;98.65
69751;BME280;57335;52.288;6.056;2022-11-15T11:26:48;100650.88;;;12.40;98.44
69751;BME280;57335;52.288;6.056;2022-11-15T11:35:26;100634.97;;;12.35;94.99
69751;BME280;57335;52.288;6.056;2022-11-15T11:41:01;100642.97;;;12.40;93.16
69751;BME280;57335;52.288;6.056;2022-11-15T11:43:55;100644.84;;;12.51;94.45
69751;BME280;57335;52.288;6.056;2022-11-15T11:49:31;100638.63;;;12.76;90.89
69751;BME280;57335;52.288;6.056;2022-11-15T11:52:08;100639.81;;;12.92;87.86
69751;BME280;57335;52.288;6.056;2022-11-15T11:55:12;100626.44;;;12.93;86.97
69751;BME280;57335;52.288;6.056;2022-11-15T11:58:10;100627.38;;;12.99;85.95
69751;BME280;57335;52.288;6.056;2022-11-15T12:00:45;100633.09;;;13.08;85.41
69751;BME280;57335;52.288;6.056;2022-11-15T12:06:23;100604.22;;;12.66;83.31
69751;BME280;57335;52.288;6.056;2022-11-15T12:08:55;100611.59;;;12.45;84.71
69751;BME280;57335;52.288;6.056;2022-11-15T12:11:43;100620.00;;;12.35;84.83
69751;BME280;57335;52.288;6.056;2022-11-15T12:17:13;100619.84;;;12.30;84.41
69751;BME280;57335;52.288;6.056;2022-11-15T12:19:41;100606.03;;;12.23;83.22
69751;BME280;57335;52.288;6.056;2022-11-15T12:22:21;100610.16;;;12.31;84.79
69751;BME280;57335;52.288;6.056;2022-11-15T12:25:06;100604.75;;;12.26;83.52
69751;BME280;57335;52.288;6.056;2022-11-15T12:27:41;100607.97;;;12.28;83.37
69751;BME280;57335;52.288;6.056;2022-11-15T12:30:19;100610.44;;;12.23;84.23
69751;BME280;57335;52.288;6.056;2022-11-15T12:32:57;100587.59;;;12.11;83.19
69751;BME280;57335;52.288;6.056;2022-11-15T12:35:27;100582.31;;;12.11;83.52
69751;BME280;57335;52.288;6.056;2022-11-15T12:37:56;100560.06;;;12.14;84.66
69751;BME280;57335;52.288;6.056;2022-11-15T12:40:37;100571.63;;;12.25;83.41
69751;BME280;57335;52.288;6.056;2022-11-15T12:43:40;100570.50;;;12.32;83.33
69751;BME280;57335;52.288;6.056;2022-11-15T12:46:12;100558.06;;;12.28;82.04
69751;BME280;57335;52.288;6.056;2022-11-15T12:51:06;100549.44;;;12.21;80.75
69751;BME280;57335;52.288;6.056;2022-11-15T12:53:33;100537.88;;;12.10;79.60
69751;BME280;57335;52.288;6.056;2022-11-15T12:58:47;100547.34;;;11.99;78.87
69751;BME280;57335;52.288;6.056;2022-11-15T13:06:49;100519.63;;;11.85;79.88
69751;BME280;57335;52.288;6.056;2022-11-15T13:14:56;100509.19;;;11.78;77.97
69751;BME280;57335;52.288;6.056;2022-11-15T13:22:45;100504.44;;;11.68;77.77
69751;BME280;57335;52.288;6.056;2022-11-15T13:25:16;100501.03;;;11.68;77.86
69751;BME280;57335;52.288;6.056;2022-11-15T13:27:47;100490.84;;;11.60;78.84
69751;BME280;57335;52.288;6.056;2022-11-15T13:30:20;100484.91;;;11.64;79.35
69751;BME280;57335;52.288;6.056;2022-11-15T13:32:47;100477.34;;;11.56;80.64
69751;BME280;57335;52.288;6.056;2022-11-15T13:35:30;100482.81;;;11.54;79.67
69751;BME280;57335;52.288;6.056;2022-11-15T13:38:03;100469.56;;;11.49;80.13
69751;BME280;57335;52.288;6.056;2022-11-15T13:40:36;100454.41;;;11.51;80.08
69751;BME280;57335;52.288;6.056;2022-11-15T13:46:25;100469.47;;;11.56;81.23
69751;BME280;57335;52.288;6.056;2022-11-15T13:49:00;100458.41;;;11.54;80.79
69751;BME280;57335;52.288;6.056;2022-11-15T13:51:46;100450.16;;;11.50;80.71
69751;BME280;57335;52.288;6.056;2022-11-15T13:54:24;100440.13;;;11.47;80.18
69751;BME280;57335;52.288;6.056;2022-11-15T13:56:57;100450.53;;;11.54;80.38
69751;BME280;57335;52.288;6.056;2022-11-15T13:59:26;100451.22;;;11.49;79.98
69751;BME280;57335;52.288;6.056;2022-11-15T14:01:55;100448.78;;;11.48;79.95
69751;BME280;57335;52.288;6.056;2022-11-15T14:04:23;100450.16;;;11.50;80.58
69751;BME280;57335;52.288;6.056;2022-11-15T14:06:54;100439.75;;;11.44;80.09
69751;BME280;57335;52.288;6.056;2022-11-15T14:09:35;100451.06;;;11.44;80.55
69751;BME280;57335;52.288;6.056;2022-11-15T14:12:22;100442.69;;;11.35;80.05
69751;BME280;57335;52.288;6.056;2022-11-15T14:14:49;100444.28;;;11.36;80.76
69751;BME280;57335;52.288;6.056;2022-11-15T14:17:20;100423.38;;;11.30;81.05
69751;BME280;57335;52.288;6.056;2022-11-15T14:19:47;100429.31;;;11.25;80.92
69751;BME280;57335;52.288;6.056;2022-11-15T14:22:16;100423.91;;;11.20;81.70
69751;BME280;57335;52.288;6.056;2022-11-15T14:24:46;100419.91;;;11.17;81.94
69751;BME280;57335;52.288;6.056;2022-11-15T14:27:25;100426.25;;;11.10;82.58